Latest Weather Observations for Frankston (Ballam Park)

IDV60901

Issued at 3:31 pm EST Monday 22 July 2024 (issued every 10 minutes, with the page automatically refreshed every 10 minutes)

About weather observations | Map of Melbourne area stations | Latest observations for Melbourne area | Other Formats
Station Details ID: 086388 Name: FRANKSTON (BALLAM PARK) Lat: -38.15 Lon: 145.16 Height: 58.47 m
Data from the previous 72 hours. | See also: Recent months at Frankston (Ballam Park)
Date/Time
EST
Temp
°C
App
Temp
°C
Dew
Point
°C
Rel
Hum
%
Delta-T
°C
Wind Press
QNH
hPa
Press
MSL
hPa
Rain since
9am
mm
Dir  Spd
km/h
Gust
km/h
Spd
kts
Gust
kts
22/03:30pm 16.6 14.2 10.2 66 3.4 NNW 13 20 7 11 1020.5 1020.6 0.0
22/03:00pm 15.4 13.5 10.4 72 2.6 NNW 11 17 6 9 1020.5 1020.6 0.0
22/02:30pm 15.4 13.7 10.0 70 2.8 NNW 9 17 5 9 1020.4 1020.5 0.0
22/02:00pm 15.7 14.0 10.0 69 3.0 NNW 9 19 5 10 1020.3 1020.4 0.0
22/01:30pm 14.9 12.8 9.9 72 2.6 NW 11 19 6 10 1020.5 1020.6 0.0
22/01:00pm 14.8 12.8 10.0 73 2.5 NW 11 19 6 10 1020.7 1020.8 0.0
22/12:30pm 15.0 13.0 10.0 72 2.6 NNW 11 19 6 10 1020.9 1021.0 0.0
22/12:00pm 14.6 11.7 9.8 73 2.5 NNW 15 24 8 13 1021.2 1021.3 0.0
22/11:30am 14.8 11.6 9.8 72 2.6 NNW 17 30 9 16 1021.3 1021.4 0.0
22/11:00am 14.6 11.7 9.6 72 2.6 NNW 15 28 8 15 1021.5 1021.6 0.0
22/10:30am 14.4 12.0 10.2 76 2.2 NNW 13 22 7 12 1021.4 1021.5 0.0
22/10:00am 13.6 11.6 10.0 79 1.9 N 11 20 6 11 1021.4 1021.5 0.0
22/09:30am 12.9 10.5 10.1 83 1.4 NNW 13 20 7 11 1021.1 1021.2 0.0
22/09:00am 12.5 9.8 10.4 87 1.1 NNW 15 22 8 12 1020.7 1020.8 1.8
22/08:30am 11.7 10.2 10.4 92 0.7 N 9 17 5 9 1020.9 1021.0 1.8
22/08:00am 11.3 9.8 10.5 95 0.4 N 9 15 5 8 1020.5 1020.6 1.8
22/07:30am 10.9 9.2 9.8 93 0.6 N 9 17 5 9 1020.1 1020.2 1.8
22/07:00am 11.1 9.1 10.2 94 0.5 NNW 11 17 6 9 1019.9 1020.0 1.8
22/06:30am 10.8 9.6 10.2 96 0.3 N 7 11 4 6 1019.7 1019.8 1.8
22/06:00am 10.8 9.2 10.3 97 0.3 N 9 17 5 9 1019.3 1019.4 1.8
22/05:30am 10.8 9.9 10.5 98 0.2 N 6 11 3 6 1019.4 1019.5 1.8
22/05:00am 11.3 10.3 11.1 99 0.1 NNW 7 13 4 7 1019.2 1019.3 1.8
22/04:30am 11.3 10.3 11.1 99 0.1 N 7 13 4 7 1019.0 1019.1 1.8
22/04:00am 11.4 10.1 11.4 100 0.0 N 9 15 5 8 1018.9 1019.0 1.8
22/03:30am 11.2 10.4 11.2 100 0.0 N 6 11 3 6 1019.0 1019.1 1.6
22/03:00am 11.3 10.3 11.0 98 0.2 N 7 11 4 6 1019.0 1019.1 1.4
22/02:30am 11.6 10.0 10.3 92 0.7 NNW 9 17 5 9 1019.1 1019.2 0.6
22/02:00am 12.2 10.1 9.9 86 1.2 NNW 11 20 6 11 1018.9 1019.0 0.2
22/01:30am 12.4 9.6 10.0 85 1.2 NNW 15 22 8 12 1018.8 1018.9 0.2
22/01:00am 12.4 9.9 9.8 84 1.3 NNW 13 20 7 11 1018.8 1018.9 0.2
22/12:30am 12.4 9.9 9.8 84 1.3 NNW 13 22 7 12 1018.8 1018.9 0.2
22/12:00am 12.3 9.8 9.7 84 1.3 N 13 24 7 13 1018.8 1018.9 0.2
 
Date/Time
EST
Temp
°C
App
Temp
°C
Dew
Point
°C
Rel
Hum
%
Delta-T
°C
Wind Press
QNH
hPa
Press
MSL
hPa
Rain since
9am
mm
Dir  Spd
km/h
Gust
km/h
Spd
kts
Gust
kts
21/11:30pm 12.5 10.1 9.9 84 1.3 N 13 19 7 10 1018.8 1018.9 0.2
21/11:00pm 12.5 10.0 9.7 83 1.4 NNW 13 24 7 13 1018.8 1018.9 0.2
21/10:30pm 12.4 9.6 10.0 85 1.2 N 15 22 8 12 1018.6 1018.7 0.2
21/10:00pm 11.6 10.0 10.2 91 0.7 N 9 17 5 9 1018.7 1018.8 0.2
21/09:30pm 11.4 10.3 9.8 90 0.8 N 6 11 3 6 1018.7 1018.8 0.2
21/09:00pm 11.2 10.1 9.8 91 0.7 NNE 6 11 3 6 1018.6 1018.7 0.2
21/08:30pm 11.8 10.1 9.9 88 1.0 N 9 17 5 9 1018.5 1018.6 0.2
21/08:00pm 11.9 10.1 9.3 84 1.3 N 9 19 5 10 1018.4 1018.5 0.2
21/07:30pm 11.8 9.6 9.4 85 1.2 N 11 19 6 10 1018.4 1018.5 0.2
21/07:00pm 11.8 9.5 9.0 83 1.4 N 11 24 6 13 1018.3 1018.4 0.2
21/06:30pm 12.0 9.3 8.8 81 1.6 N 13 26 7 14 1018.0 1018.1 0.2
21/06:00pm 12.0 9.6 8.7 80 1.6 N 11 24 6 13 1017.9 1018.0 0.2
21/05:30pm 12.3 9.8 8.4 77 1.9 N 11 20 6 11 1017.6 1017.7 0.2
21/05:00pm 12.9 10.0 8.2 73 2.3 N 13 22 7 12 1017.5 1017.6 0.2
21/04:30pm 13.3 10.3 7.7 69 2.8 NNW 13 20 7 11 1017.3 1017.4 0.2
21/04:00pm 13.7 10.8 8.1 69 2.8 NNW 13 22 7 12 1017.0 1017.1 0.2
21/03:30pm 13.9 11.5 8.7 71 2.6 NNW 11 19 6 10 1016.8 1016.9 0.2
21/03:00pm 13.5 11.5 8.6 72 2.5 NW 9 13 5 7 1016.7 1016.8 0.2
21/02:30pm 14.6 11.7 8.1 65 3.3 NW 13 24 7 13 1016.6 1016.7 0.2
21/02:00pm 15.3 12.6 8.8 65 3.3 NW 13 30 7 16 1016.2 1016.3 0.2
21/01:30pm 15.1 12.1 9.2 68 3.0 NW 15 22 8 12 1016.3 1016.4 0.2
21/01:00pm 15.0 12.6 10.0 72 2.6 NW 13 26 7 14 1016.7 1016.8 0.2
21/12:30pm 14.2 11.5 8.8 70 2.7 NW 13 28 7 15 1017.0 1017.1 0.2
21/12:00pm 14.3 11.8 9.7 74 2.4 NW 13 20 7 11 1017.3 1017.4 0.2
21/11:30am 12.9 10.9 8.6 75 2.2 NNW 9 17 5 9 1017.6 1017.7 0.2
21/11:00am 12.0 10.6 9.0 82 1.5 NNW 6 9 3 5 1017.9 1018.0 0.2
21/10:30am 10.6 9.7 9.4 92 0.6 NNE 4 9 2 5 1018.0 1018.1 0.0
21/10:00am 9.8 8.4 8.7 93 0.5 N 6 11 3 6 1017.9 1018.0 0.0
21/09:30am 9.8 9.1 8.6 92 0.6 NNE 2 6 1 3 1017.7 1017.8 0.0
21/09:00am 9.2 7.6 8.0 92 0.6 N 6 11 3 6 1017.4 1017.5 21.6
21/08:30am 8.3 7.9 8.3 100 0.0 CALM 0 0 0 0 1017.2 1017.3 21.6
21/08:00am 7.7 7.2 7.7 100 0.0 CALM 0 0 0 0 1017.1 1017.2 21.6
21/07:30am 7.9 6.6 7.6 98 0.1 NNW 4 7 2 4 1017.1 1017.2 21.6
21/07:00am 7.8 6.4 7.4 97 0.2 N 4 7 2 4 1016.7 1016.8 21.6
21/06:30am 8.1 6.7 7.3 95 0.4 N 4 7 2 4 1016.4 1016.5 21.6
21/06:00am 8.5 7.3 7.9 96 0.3 N 4 13 2 7 1016.2 1016.3 21.6
21/05:30am 9.0 7.8 7.9 93 0.5 NNW 4 7 2 4 1015.9 1016.0 21.6
21/05:00am 9.3 7.8 8.4 94 0.4 NW 6 7 3 4 1015.8 1015.9 21.6
21/04:30am 9.0 7.4 8.6 97 0.2 WNW 7 15 4 8 1015.7 1015.8 21.6
21/04:00am 8.9 7.1 8.1 95 0.4 WNW 7 11 4 6 1015.7 1015.8 21.6
21/03:30am 9.0 6.9 8.4 96 0.3 WNW 9 15 5 8 1015.6 1015.7 21.6
21/03:00am 8.8 6.9 7.7 93 0.5 WNW 7 17 4 9 1015.5 1015.6 21.6
21/02:30am 8.8 6.6 7.7 93 0.5 WNW 9 15 5 8 1015.3 1015.4 21.6
21/02:00am 8.7 6.6 6.8 88 0.9 WNW 7 15 4 8 1015.1 1015.2 21.6
21/01:30am 9.2 6.4 7.0 86 1.0 WNW 11 19 6 10 1014.7 1014.8 21.6
21/01:00am 9.1 7.1 7.2 88 0.9 W 7 15 4 8 1014.3 1014.4 21.6
21/12:30am 8.6 6.6 7.2 91 0.7 W 7 15 4 8 1014.1 1014.2 21.6
21/12:00am 8.7 6.4 7.5 92 0.6 W 9 17 5 9 1013.8 1013.9 21.6
 
Date/Time
EST
Temp
°C
App
Temp
°C
Dew
Point
°C
Rel
Hum
%
Delta-T
°C
Wind Press
QNH
hPa
Press
MSL
hPa
Rain since
9am
mm
Dir  Spd
km/h
Gust
km/h
Spd
kts
Gust
kts
20/11:30pm 9.2 6.8 8.6 96 0.3 W 11 20 6 11 1013.5 1013.6 21.6
20/11:00pm 9.3 7.1 9.3 100 0.0 W 11 24 6 13 1013.1 1013.1 21.6
20/10:30pm 9.2 7.3 9.2 100 0.0 W 9 17 5 9 1012.7 1012.7 21.6
20/10:00pm 9.3 7.1 9.3 100 0.0 W 11 20 6 11 1012.0 1012.0 20.4
20/09:30pm 9.3 7.8 9.3 100 0.0 W 7 20 4 11 1011.6 1011.6 17.8
20/09:00pm 9.5 7.3 9.5 100 0.0 W 11 24 6 13 1010.9 1010.9 13.4
20/08:30pm 9.4 6.8 9.4 100 0.0 W 13 24 7 13 1010.5 1010.5 12.4
20/08:00pm 9.8 7.7 9.8 100 0.0 W 11 24 6 13 1009.9 1009.9 11.6
20/07:30pm 9.9 7.5 9.9 100 0.0 W 13 30 7 16 1009.0 1009.1 11.4
20/07:00pm 9.8 7.7 9.8 100 0.0 W 11 20 6 11 1008.4 1008.5 11.0
20/06:30pm 10.1 8.4 10.0 99 0.1 W 9 19 5 10 1007.6 1007.7 10.4
20/06:00pm 10.1 7.9 9.5 96 0.3 W 11 24 6 13 1006.9 1007.0 10.2
20/05:30pm 10.3 7.5 10.1 99 0.1 W 15 30 8 16 1005.8 1005.9 10.0
20/05:00pm 10.6 8.7 10.6 100 0.0 WSW 11 26 6 14 1005.0 1005.1 9.6
20/04:30pm 10.2 7.3 9.6 96 0.3 WSW 15 37 8 20 1003.9 1004.0 7.8
20/04:00pm 10.6 8.3 10.6 100 0.0 WSW 13 24 7 13 1003.1 1003.2 6.6
20/03:30pm 10.0 7.6 10.0 100 0.0 WSW 13 33 7 18 1002.6 1002.7 4.6
20/03:00pm 10.2 8.5 9.9 98 0.2 W 9 19 5 10 1001.2 1001.3 2.4
20/02:30pm 11.5 8.1 10.7 95 0.4 WNW 19 30 10 16 1000.2 1000.3 0.0
20/02:00pm 11.7 8.1 9.9 89 0.9 WNW 19 33 10 18 999.4 999.5 0.0
20/01:30pm 11.3 8.0 9.7 90 0.8 WNW 17 28 9 15 998.9 998.9 0.0
20/01:00pm 10.8 6.9 8.6 86 1.1 WNW 19 33 10 18 998.8 998.8 0.0
20/12:30pm 10.5 5.8 7.9 84 1.3 WNW 22 37 12 20 998.5 998.5 0.0
20/12:00pm 10.2 5.3 6.9 80 1.6 WNW 22 39 12 21 998.3 998.3 0.0
20/11:30am 10.1 5.1 6.6 79 1.6 WNW 22 39 12 21 998.2 998.2 0.0
20/11:00am 10.1 5.1 6.4 78 1.7 WNW 22 43 12 23 997.9 997.9 0.0
20/10:30am 9.6 4.1 5.8 77 1.7 WNW 24 43 13 23 997.7 997.7 0.0
20/10:00am 9.8 4.2 5.6 75 1.9 WNW 24 44 13 24 997.0 997.0 0.0
20/09:30am 9.4 3.9 5.9 79 1.6 WNW 24 41 13 22 996.5 996.5 0.0
20/09:01am 9.3 3.0 5.7 78 1.6 WNW 28 46 15 25 995.9 995.9 0.0
20/09:00am 9.3 3.0 5.9 79 1.6 WNW 28 44 15 24 995.9 995.9 2.8
20/08:30am 9.0 3.2 6.4 84 1.2 WNW 26 43 14 23 995.4 995.4 2.6
20/08:11am 9.3 3.2 6.7 84 1.2 WNW 28 48 15 26 995.1 995.1 2.4
20/08:00am 9.6 5.2 7.2 85 1.1 WNW 20 39 11 21 994.9 994.9 2.4
20/07:38am 9.7 3.7 7.1 84 1.2 WNW 28 54 15 29 994.3 994.3 2.4
20/07:30am 9.8 4.6 7.2 84 1.2 WNW 24 54 13 29 994.1 994.1 2.2
20/07:00am 10.1 4.4 6.6 79 1.7 WNW 26 48 14 26 993.9 993.9 2.2
20/06:30am 9.9 5.1 7.3 84 1.2 WNW 22 39 12 21 993.4 993.4 2.2
20/06:12am 9.7 3.8 7.6 87 1.0 NW 28 56 15 30 992.8 992.8 2.2
20/06:00am 10.4 5.6 7.3 81 1.5 NW 22 41 12 22 992.7 992.7 2.2
20/05:30am 10.6 6.7 7.3 80 1.6 NNW 17 28 9 15 992.2 992.2 2.2
20/05:00am 10.8 6.9 6.9 77 1.9 NNW 17 26 9 14 992.3 992.3 2.2
20/04:30am 11.4 7.0 6.5 72 2.3 NNW 19 32 10 17 992.6 992.6 2.2
20/04:00am 11.3 6.7 6.6 73 2.3 NNW 20 33 11 18 992.7 992.7 2.2
20/03:30am 11.0 6.7 7.1 77 1.9 NNW 19 32 10 17 992.9 992.9 2.2
20/03:00am 10.8 6.0 7.5 80 1.6 NNW 22 39 12 21 993.2 993.2 2.2
20/02:30am 11.3 6.0 7.0 75 2.1 NNW 24 39 13 21 993.7 993.7 2.0
20/02:00am 11.1 6.6 7.0 76 2.0 NNW 20 35 11 19 994.1 994.1 2.0
20/01:30am 11.1 6.8 7.0 76 2.0 NNW 19 37 10 20 994.6 994.6 2.0
20/01:00am 11.3 6.4 6.8 74 2.2 NNW 22 41 12 22 995.0 995.0 2.0
20/12:30am 11.3 6.0 7.0 75 2.1 NNW 24 35 13 19 995.2 995.2 2.0
20/12:00am 11.3 6.3 6.6 73 2.2 N 22 39 12 21 995.3 995.3 2.0
 
Date/Time
EST
Temp
°C
App
Temp
°C
Dew
Point
°C
Rel
Hum
%
Delta-T
°C
Wind Press
QNH
hPa
Press
MSL
hPa
Rain since
9am
mm
Dir  Spd
km/h
Gust
km/h
Spd
kts
Gust
kts
19/11:30pm 11.4 4.9 6.5 72 2.3 NNW 30 56 16 30 995.8 995.8 2.0
19/11:00pm 11.7 5.6 6.6 71 2.4 N 28 56 15 30 996.1 996.1 2.0
19/10:30pm 11.6 5.5 6.5 71 2.4 N 28 48 15 26 996.9 996.9 2.0
19/10:00pm 11.5 5.0 6.4 71 2.4 NNW 30 56 16 30 997.5 997.5 2.0
19/09:48pm 11.6 4.7 6.5 71 2.4 N 32 67 17 36 997.6 997.6 2.0
19/09:30pm 11.6 5.5 6.7 72 2.3 NNW 28 48 15 26 997.9 997.9 2.0
19/09:20pm 11.5 5.4 6.8 73 2.2 N 28 52 15 28 998.0 998.0 2.0
19/09:00pm 10.8 6.0 7.5 80 1.6 N 22 46 12 25 998.4 998.4 2.0
19/08:30pm 11.1 6.5 6.5 73 2.2 N 20 33 11 18 999.1 999.2 2.0
19/08:00pm 11.0 6.0 6.6 74 2.1 N 22 43 12 23 999.8 999.9 2.0
19/07:30pm 10.9 5.5 6.5 74 2.1 N 24 48 13 26 1000.4 1000.5 2.0
19/07:25pm 11.0 4.9 6.4 73 2.2 N 28 54 15 29 1000.4 1000.5 2.0
19/07:00pm 10.5 5.5 6.6 77 1.8 NNW 22 37 12 20 1000.9 1001.0 2.0
19/06:30pm 9.3 5.5 7.6 89 0.8 N 17 32 9 17 1001.4 1001.5 2.0
19/06:00pm 9.3 5.5 7.4 88 0.9 N 17 28 9 15 1001.7 1001.8 1.4
19/05:30pm 9.7 5.2 6.8 82 1.4 N 20 37 11 20 1002.2 1002.3 0.6
19/05:00pm 10.1 5.6 6.3 77 1.8 N 19 35 10 19 1002.1 1002.2 0.4
19/04:30pm 10.1 5.7 6.4 78 1.7 N 19 33 10 18 1002.4 1002.5 0.4
19/04:00pm 9.8 5.5 6.9 82 1.4 N 19 32 10 17 1003.0 1003.1 0.4

Latest Capital City Observations: Canberra | Sydney | Melbourne | Brisbane | Adelaide | Perth | Hobart | Darwin

Other formats

Comma delimited format used in spreadsheet applications
http://www.bom.gov.au/fwo/IDV60901/IDV60901.94876.axf

JavaScript Object Notation format (JSON) in row-major order
http://www.bom.gov.au/fwo/IDV60901/IDV60901.94876.json

Data quality

Most of these data are generated automatically and are frequently updated. Quality checks on data are not normally performed. It is possible for incorrect values to appear. Refer to information at About Latest Weather Observations and please check the disclaimer before using these data.